createdAt,value
2019-03-21T00:00:25.899Z,1028.10
2019-03-21T00:01:25.930Z,1028.22
2019-03-21T00:02:25.862Z,1028.13
2019-03-21T00:03:25.941Z,1028.18
2019-03-21T00:04:25.920Z,1028.22
2019-03-21T00:05:25.958Z,1028.16
2019-03-21T00:06:25.820Z,1028.19
2019-03-21T00:07:25.862Z,1028.19
2019-03-21T00:08:25.817Z,1028.15
2019-03-21T00:09:25.901Z,1028.10
2019-03-21T00:10:25.806Z,1028.21
2019-03-21T00:11:25.898Z,1028.15
2019-03-21T00:12:25.763Z,1028.22
2019-03-21T00:13:25.813Z,1028.15
2019-03-21T00:14:25.773Z,1028.18
2019-03-21T00:15:25.830Z,1028.12
2019-03-21T00:16:25.728Z,1028.18
2019-03-21T00:17:25.842Z,1028.16
2019-03-21T00:18:25.737Z,1028.11
2019-03-21T00:19:25.768Z,1028.15
2019-03-21T00:20:25.667Z,1028.12
2019-03-21T00:21:25.754Z,1028.16
2019-03-21T00:22:25.667Z,1028.14
2019-03-21T00:23:25.679Z,1028.13
2019-03-21T00:24:25.618Z,1028.10
2019-03-21T00:25:25.699Z,1028.14
2019-03-21T00:26:25.612Z,1028.15
2019-03-21T00:27:25.705Z,1028.15
2019-03-21T00:28:25.577Z,1028.12
2019-03-21T00:29:25.614Z,1028.08
2019-03-21T00:30:25.584Z,1028.11
2019-03-21T00:31:25.630Z,1028.05
2019-03-21T00:32:25.545Z,1028.10
2019-03-21T00:33:25.632Z,1028.08
2019-03-21T00:34:25.518Z,1028.12
2019-03-21T00:35:25.569Z,1028.09
2019-03-21T00:36:25.499Z,1028.08
2019-03-21T00:37:25.576Z,1028.10
2019-03-21T00:38:25.476Z,1028.11
2019-03-21T00:39:32.663Z,1028.10
2019-03-21T00:40:26.468Z,1028.02
2019-03-21T00:41:25.477Z,1027.99
2019-03-21T00:42:25.423Z,1028.00
2019-03-21T00:44:26.542Z,1028.02
2019-03-21T00:45:25.535Z,1027.92
2019-03-21T00:46:25.376Z,1027.93
2019-03-21T00:47:25.433Z,1027.96
2019-03-21T00:48:25.367Z,1027.92
2019-03-21T00:49:25.452Z,1027.88
2019-03-21T00:50:25.354Z,1027.98
2019-03-21T00:51:25.373Z,1027.94
2019-03-21T00:52:25.315Z,1027.95
2019-03-21T00:54:26.418Z,1028.00
2019-03-21T00:55:25.372Z,1027.89
2019-03-21T00:56:25.295Z,1027.98
2019-03-21T00:57:25.282Z,1027.95
2019-03-21T00:58:25.251Z,1027.92
2019-03-21T00:59:25.322Z,1027.92
2019-03-21T01:00:25.226Z,1027.91
2019-03-21T01:01:25.340Z,1027.89
2019-03-21T01:02:25.201Z,1027.91
2019-03-21T01:03:25.228Z,1027.95
2019-03-21T01:04:25.200Z,1027.88
2019-03-21T01:05:25.237Z,1027.87
2019-03-21T01:06:25.211Z,1027.87
2019-03-21T01:07:25.259Z,1027.88
2019-03-21T01:08:25.150Z,1027.82
2019-03-21T01:09:25.173Z,1027.88
2019-03-21T01:10:25.107Z,1027.88
2019-03-21T01:11:25.202Z,1027.83
2019-03-21T01:12:25.086Z,1027.84
2019-03-21T01:13:25.190Z,1027.82
2019-03-21T01:14:29.676Z,1027.85
2019-03-21T01:15:26.075Z,1027.83
2019-03-21T01:16:25.092Z,1027.80
2019-03-21T01:17:25.038Z,1027.84
2019-03-21T01:18:25.053Z,1027.84
2019-03-21T01:19:25.135Z,1027.83
2019-03-21T01:20:25.054Z,1027.78
2019-03-21T01:21:25.075Z,1027.69
2019-03-21T01:22:25.005Z,1027.71
2019-03-21T01:23:25.076Z,1027.73
2019-03-21T01:24:24.960Z,1027.66
2019-03-21T01:25:25.070Z,1027.67
2019-03-21T01:26:24.929Z,1027.70
2019-03-21T01:27:25.008Z,1027.73
2019-03-21T01:28:24.922Z,1027.73
2019-03-21T01:29:25.002Z,1027.76
2019-03-21T01:30:24.897Z,1027.70
2019-03-21T01:31:25.956Z,1027.66
2019-03-21T01:32:24.866Z,1027.76
2019-03-21T01:33:24.933Z,1027.75
2019-03-21T01:34:24.851Z,1027.75
2019-03-21T01:35:24.889Z,1027.68
2019-03-21T01:36:24.853Z,1027.68
2019-03-21T01:37:24.875Z,1027.66
2019-03-21T01:38:24.806Z,1027.71
2019-03-21T01:39:24.862Z,1027.70
2019-03-21T01:40:24.791Z,1027.68
2019-03-21T01:41:24.883Z,1027.64
2019-03-21T01:42:24.792Z,1027.69
2019-03-21T01:43:24.801Z,1027.68
2019-03-21T01:44:24.752Z,1027.65
2019-03-21T01:45:24.797Z,1027.64
2019-03-21T01:46:24.721Z,1027.66
2019-03-21T01:47:24.845Z,1027.66
2019-03-21T01:48:24.693Z,1027.62
2019-03-21T01:49:24.722Z,1027.67
2019-03-21T01:50:24.677Z,1027.62
2019-03-21T01:51:24.765Z,1027.61
2019-03-21T01:52:24.675Z,1027.68
2019-03-21T01:53:24.751Z,1027.71
2019-03-21T01:54:24.624Z,1027.64
2019-03-21T01:55:24.666Z,1027.67
2019-03-21T01:56:24.606Z,1027.63
2019-03-21T01:57:25.728Z,1027.65
2019-03-21T01:58:24.581Z,1027.61
2019-03-21T01:59:24.688Z,1027.62
2019-03-21T02:00:24.577Z,1027.61
2019-03-21T02:01:24.603Z,1027.59
2019-03-21T02:02:24.571Z,1027.56
2019-03-21T02:03:24.618Z,1027.58
2019-03-21T02:04:24.511Z,1027.60
2019-03-21T02:05:24.533Z,1027.52
2019-03-21T02:06:24.494Z,1027.53
2019-03-21T02:07:24.575Z,1027.48
2019-03-21T02:08:24.511Z,1027.48
2019-03-21T02:09:24.562Z,1027.51
2019-03-21T02:10:24.490Z,1027.49
2019-03-21T02:11:24.483Z,1027.48
2019-03-21T02:12:24.520Z,1027.50
2019-03-21T02:13:24.480Z,1027.47
2019-03-21T02:14:24.415Z,1027.44
2019-03-21T02:15:25.049Z,1027.43
2019-03-21T02:16:24.419Z,1027.47
2019-03-21T02:17:24.415Z,1027.46
2019-03-21T02:18:24.404Z,1027.47
2019-03-21T02:19:24.424Z,1027.46
2019-03-21T02:20:24.354Z,1027.41
2019-03-21T02:21:24.449Z,1027.39
2019-03-21T02:22:24.317Z,1027.45
2019-03-21T02:23:24.394Z,1027.45
2019-03-21T02:24:24.338Z,1027.46
2019-03-21T02:25:24.373Z,1027.49
2019-03-21T02:26:24.290Z,1027.44
2019-03-21T02:28:25.370Z,1027.44
2019-03-21T02:29:25.340Z,1027.44
2019-03-21T02:30:24.232Z,1027.40
2019-03-21T02:31:24.297Z,1027.42
2019-03-21T02:32:24.214Z,1027.40
2019-03-21T02:33:24.380Z,1027.48
2019-03-21T02:34:24.222Z,1027.43
2019-03-21T02:35:24.233Z,1027.50
2019-03-21T02:36:24.204Z,1027.49
2019-03-21T02:37:24.249Z,1027.45
2019-03-21T02:38:24.146Z,1027.50
2019-03-21T02:39:24.194Z,1027.53
2019-03-21T02:40:24.122Z,1027.46
2019-03-21T02:41:25.695Z,1027.50
2019-03-21T02:42:24.101Z,1027.48
2019-03-21T02:43:24.187Z,1027.48
2019-03-21T02:44:24.120Z,1027.47
2019-03-21T02:45:24.095Z,1027.49
2019-03-21T02:46:24.049Z,1027.50
2019-03-21T02:47:24.104Z,1027.47
2019-03-21T02:48:24.030Z,1027.47
2019-03-21T02:49:24.104Z,1027.47
2019-03-21T02:50:24.022Z,1027.53
2019-03-21T02:51:24.022Z,1027.45
2019-03-21T02:52:23.990Z,1027.52
2019-03-21T02:53:24.048Z,1027.53
2019-03-21T02:54:23.996Z,1027.46
2019-03-21T02:56:25.090Z,1027.44
2019-03-21T02:58:25.052Z,1027.41
2019-03-21T02:59:24.009Z,1027.42
2019-03-21T03:00:23.896Z,1027.45
2019-03-21T03:01:23.991Z,1027.39
2019-03-21T03:02:23.889Z,1027.45
2019-03-21T03:03:23.912Z,1027.39
2019-03-21T03:04:23.879Z,1027.35
2019-03-21T03:05:23.931Z,1027.33
2019-03-21T03:06:23.881Z,1027.32
2019-03-21T03:07:23.936Z,1027.34
2019-03-21T03:08:23.812Z,1027.37
2019-03-21T03:09:23.829Z,1027.45
2019-03-21T03:10:23.783Z,1027.46
2019-03-21T03:11:23.863Z,1027.48
2019-03-21T03:12:23.770Z,1027.51
2019-03-21T03:14:24.895Z,1027.52
2019-03-21T03:15:23.803Z,1027.41
2019-03-21T03:16:23.734Z,1027.48
2019-03-21T03:17:23.802Z,1027.44
2019-03-21T03:18:23.705Z,1027.44
2019-03-21T03:19:23.748Z,1027.47
2019-03-21T03:20:23.671Z,1027.46
2019-03-21T03:21:23.739Z,1027.41
2019-03-21T03:22:23.665Z,1027.44
2019-03-21T03:23:23.801Z,1027.44
2019-03-21T03:24:23.672Z,1027.50
2019-03-21T03:25:23.673Z,1027.45
2019-03-21T03:26:23.622Z,1027.52
2019-03-21T03:27:23.666Z,1027.54
2019-03-21T03:28:23.586Z,1027.51
2019-03-21T03:29:23.680Z,1027.51
2019-03-21T03:30:23.591Z,1027.55
2019-03-21T03:31:23.572Z,1027.59
2019-03-21T03:32:23.593Z,1027.57
2019-03-21T03:33:23.607Z,1027.54
2019-03-21T03:34:23.538Z,1027.57
2019-03-21T03:35:23.650Z,1027.57
2019-03-21T03:36:23.512Z,1027.55
2019-03-21T03:37:23.530Z,1027.60
2019-03-21T03:38:23.487Z,1027.56
2019-03-21T03:39:23.546Z,1027.56
2019-03-21T03:40:23.481Z,1027.52
2019-03-21T03:41:23.560Z,1027.56
2019-03-21T03:42:23.473Z,1027.54
2019-03-21T03:43:23.472Z,1027.53
2019-03-21T03:44:23.420Z,1027.55
2019-03-21T03:45:36.641Z,1027.60
2019-03-21T03:46:24.431Z,1027.60
2019-03-21T03:47:23.397Z,1027.51
2019-03-21T03:48:23.373Z,1027.65
2019-03-21T03:49:23.415Z,1027.66
2019-03-21T03:50:23.382Z,1027.64
2019-03-21T03:51:23.428Z,1027.62
2019-03-21T03:52:23.324Z,1027.65
2019-03-21T03:53:23.352Z,1027.66
2019-03-21T03:54:23.301Z,1027.66
2019-03-21T03:55:23.362Z,1027.62
2019-03-21T03:56:23.315Z,1027.70
2019-03-21T03:57:23.308Z,1027.72
2019-03-21T03:58:23.269Z,1027.66
2019-03-21T03:59:23.280Z,1027.71
2019-03-21T04:00:23.243Z,1027.67
2019-03-21T04:01:23.336Z,1027.70
2019-03-21T04:02:23.222Z,1027.71
2019-03-21T04:03:23.308Z,1027.72
2019-03-21T04:04:23.201Z,1027.74
2019-03-21T04:05:23.216Z,1027.71
2019-03-21T04:06:23.190Z,1027.65
2019-03-21T04:07:23.232Z,1027.69
2019-03-21T04:08:23.149Z,1027.75
2019-03-21T04:09:23.254Z,1027.64
2019-03-21T04:10:23.182Z,1027.68
2019-03-21T04:11:24.205Z,1027.68
2019-03-21T04:12:23.096Z,1027.73
2019-03-21T04:14:24.198Z,1027.76
2019-03-21T04:15:23.183Z,1027.77
2019-03-21T04:16:23.090Z,1027.72
2019-03-21T04:17:23.138Z,1027.78
2019-03-21T04:18:23.053Z,1027.71
2019-03-21T04:19:23.109Z,1027.81
2019-03-21T04:20:23.006Z,1027.79
2019-03-21T04:21:23.199Z,1027.71
2019-03-21T04:22:22.995Z,1027.80
2019-03-21T04:23:23.045Z,1027.79
2019-03-21T04:24:22.962Z,1027.71
2019-03-21T04:25:23.067Z,1027.71
2019-03-21T04:26:22.987Z,1027.75
2019-03-21T04:27:22.967Z,1027.78
2019-03-21T04:28:22.939Z,1027.81
2019-03-21T04:29:22.991Z,1027.83
2019-03-21T04:30:22.900Z,1027.79
2019-03-21T04:31:22.999Z,1027.71
2019-03-21T04:32:22.915Z,1027.74
2019-03-21T04:33:23.198Z,1027.77
2019-03-21T04:34:22.860Z,1027.72
2019-03-21T04:35:22.913Z,1027.73
2019-03-21T04:36:22.849Z,1027.78
2019-03-21T04:37:23.069Z,1027.73
2019-03-21T04:38:22.830Z,1027.77
2019-03-21T04:39:22.839Z,1027.75
2019-03-21T04:40:22.810Z,1027.71
2019-03-21T04:42:44.771Z,1027.75
2019-03-21T04:43:22.757Z,1027.66
2019-03-21T04:44:22.869Z,1027.71
2019-03-21T04:45:22.739Z,1027.70
2019-03-21T04:46:22.797Z,1027.77
2019-03-21T04:47:22.747Z,1027.72
2019-03-21T04:48:22.820Z,1027.72
2019-03-21T04:49:22.711Z,1027.74
2019-03-21T04:50:22.709Z,1027.73
2019-03-21T04:51:22.663Z,1027.72
2019-03-21T04:52:22.719Z,1027.70
2019-03-21T04:53:22.682Z,1027.73
2019-03-21T04:54:22.650Z,1027.70
2019-03-21T04:55:22.650Z,1027.70
2019-03-21T04:56:22.626Z,1027.73
2019-03-21T04:57:22.637Z,1027.67
2019-03-21T04:58:22.690Z,1027.75
2019-03-21T04:59:22.591Z,1027.75
2019-03-21T05:00:22.684Z,1027.69
2019-03-21T05:01:22.564Z,1027.70
2019-03-21T05:02:22.601Z,1027.67
2019-03-21T05:03:22.562Z,1027.72
2019-03-21T05:04:22.602Z,1027.64
2019-03-21T05:05:22.513Z,1027.69
2019-03-21T05:06:22.508Z,1027.70
2019-03-21T05:07:22.493Z,1027.72
2019-03-21T05:08:22.563Z,1027.69
2019-03-21T05:09:22.483Z,1027.65
2019-03-21T05:10:22.471Z,1027.67
2019-03-21T05:11:22.451Z,1027.69
2019-03-21T05:12:22.590Z,1027.71
2019-03-21T05:13:22.465Z,1027.75
2019-03-21T05:14:22.465Z,1027.76
2019-03-21T05:15:22.410Z,1027.74
2019-03-21T05:16:22.475Z,1027.81
2019-03-21T05:17:22.391Z,1027.77
2019-03-21T05:18:22.531Z,1027.70
2019-03-21T05:19:22.376Z,1027.79
2019-03-21T05:20:22.422Z,1027.75
2019-03-21T05:21:22.353Z,1027.74
2019-03-21T05:22:22.419Z,1027.76
2019-03-21T05:23:22.352Z,1027.76
2019-03-21T05:24:22.436Z,1027.67
2019-03-21T05:25:22.293Z,1027.72
2019-03-21T05:26:22.361Z,1027.69
2019-03-21T05:27:22.292Z,1027.71
2019-03-21T05:28:22.389Z,1027.66
2019-03-21T05:29:22.271Z,1027.78
2019-03-21T05:30:22.275Z,1027.77
2019-03-21T05:31:22.648Z,1027.71
2019-03-21T05:32:22.287Z,1027.75
2019-03-21T05:33:22.232Z,1027.83
2019-03-21T05:34:22.360Z,1027.77
2019-03-21T05:35:22.185Z,1027.77
2019-03-21T05:36:22.221Z,1027.86
2019-03-21T05:37:22.182Z,1027.85
2019-03-21T05:38:22.421Z,1027.86
2019-03-21T05:39:22.216Z,1027.86
2019-03-21T05:40:22.245Z,1027.85
2019-03-21T05:41:22.644Z,1027.81
2019-03-21T05:42:22.158Z,1027.84
2019-03-21T05:43:22.101Z,1027.89
2019-03-21T05:44:22.195Z,1027.87
2019-03-21T05:45:22.080Z,1027.92
2019-03-21T05:46:26.933Z,1027.85
2019-03-21T05:47:23.047Z,1027.90
2019-03-21T05:48:22.087Z,1027.87
2019-03-21T05:49:22.063Z,1027.90
2019-03-21T05:50:22.103Z,1027.89
2019-03-21T05:51:22.024Z,1027.83
2019-03-21T05:52:22.139Z,1027.87
2019-03-21T05:53:22.004Z,1027.89
2019-03-21T05:54:22.272Z,1027.84
2019-03-21T05:55:21.998Z,1027.90
2019-03-21T05:56:22.450Z,1027.87
2019-03-21T05:57:21.967Z,1027.90
2019-03-21T05:59:23.071Z,1027.90
2019-03-21T06:01:23.049Z,1027.93
2019-03-21T06:02:23.929Z,1027.90
2019-03-21T06:03:21.880Z,1027.90
2019-03-21T06:04:22.846Z,1027.92
2019-03-21T06:05:21.862Z,1027.96
2019-03-21T06:07:22.956Z,1027.92
2019-03-21T06:09:23.055Z,1027.95
2019-03-21T06:10:23.096Z,1027.93
2019-03-21T06:11:21.787Z,1027.96
2019-03-21T06:13:22.929Z,1027.99
2019-03-21T06:15:22.897Z,1028.02
2019-03-21T06:16:23.725Z,1028.05
2019-03-21T06:17:21.729Z,1028.11
2019-03-21T06:18:23.937Z,1028.10
2019-03-21T06:19:21.695Z,1028.08
2019-03-21T06:20:24.089Z,1028.09
2019-03-21T06:21:21.674Z,1027.99
2019-03-21T06:22:24.068Z,1028.09
2019-03-21T06:23:21.646Z,1028.08
2019-03-21T06:24:24.183Z,1028.07
2019-03-21T06:25:21.668Z,1028.08
2019-03-21T06:26:24.346Z,1028.13
2019-03-21T06:27:21.608Z,1028.11
2019-03-21T06:28:24.533Z,1028.15
2019-03-21T06:29:21.588Z,1028.20
2019-03-21T06:30:25.075Z,1028.12
2019-03-21T06:31:21.587Z,1028.16
2019-03-21T06:33:22.670Z,1028.11
2019-03-21T06:35:22.709Z,1028.20
2019-03-21T06:37:22.640Z,1028.24
2019-03-21T06:38:25.095Z,1028.16
2019-03-21T06:39:21.467Z,1028.23
2019-03-21T06:40:25.355Z,1028.19
2019-03-21T06:41:21.468Z,1028.17
2019-03-21T06:43:21.452Z,1028.18
2019-03-21T06:44:25.247Z,1028.20
2019-03-21T06:45:21.404Z,1028.21
2019-03-21T06:46:23.456Z,1028.22
2019-03-21T06:47:21.388Z,1028.20
2019-03-21T06:48:23.533Z,1028.18
2019-03-21T06:49:21.377Z,1028.22
2019-03-21T06:50:21.398Z,1028.19
2019-03-21T06:51:21.385Z,1028.32
2019-03-21T06:52:21.406Z,1028.27
2019-03-21T06:53:21.317Z,1028.23
2019-03-21T06:54:21.416Z,1028.23
2019-03-21T06:55:21.292Z,1028.22
2019-03-21T06:56:21.367Z,1028.28
2019-03-21T06:57:21.278Z,1028.28
2019-03-21T06:58:21.346Z,1028.36
2019-03-21T06:59:21.246Z,1028.35
2019-03-21T07:00:21.374Z,1028.37
2019-03-21T07:01:21.258Z,1028.32
2019-03-21T07:02:21.308Z,1028.38
2019-03-21T07:03:21.206Z,1028.32
2019-03-21T07:04:21.297Z,1028.42
2019-03-21T07:05:21.181Z,1028.34
2019-03-21T07:06:21.224Z,1028.38
2019-03-21T07:07:21.184Z,1028.28
2019-03-21T07:08:21.211Z,1028.38
2019-03-21T07:09:21.142Z,1028.32
2019-03-21T07:10:21.225Z,1028.37
2019-03-21T07:11:21.120Z,1028.36
2019-03-21T07:12:21.181Z,1028.33
2019-03-21T07:13:21.100Z,1028.31
2019-03-21T07:14:21.153Z,1028.37
2019-03-21T07:15:21.072Z,1028.34
2019-03-21T07:16:21.171Z,1028.29
2019-03-21T07:17:23.005Z,1028.31
2019-03-21T07:18:21.105Z,1028.32
2019-03-21T07:19:21.048Z,1028.33
2019-03-21T07:20:21.108Z,1028.38
2019-03-21T07:21:21.017Z,1028.34
2019-03-21T07:22:21.164Z,1028.33
2019-03-21T07:23:20.985Z,1028.35
2019-03-21T07:24:21.012Z,1028.36
2019-03-21T07:25:20.972Z,1028.34
2019-03-21T07:26:21.052Z,1028.37
2019-03-21T07:27:20.969Z,1028.34
2019-03-21T07:28:21.042Z,1028.38
2019-03-21T07:29:20.931Z,1028.34
2019-03-21T07:30:20.955Z,1028.35
2019-03-21T07:31:20.903Z,1028.37
2019-03-21T07:32:21.002Z,1028.31
2019-03-21T07:33:20.895Z,1028.35
2019-03-21T07:34:20.990Z,1028.34
2019-03-21T07:35:20.856Z,1028.29
2019-03-21T07:36:20.894Z,1028.31
2019-03-21T07:37:20.865Z,1028.29
2019-03-21T07:38:20.840Z,1028.27
2019-03-21T07:39:20.815Z,1028.32
2019-03-21T07:40:20.812Z,1028.29
2019-03-21T07:41:20.826Z,1028.29
2019-03-21T07:42:20.835Z,1028.29
2019-03-21T07:43:22.308Z,1028.29
2019-03-21T07:44:20.845Z,1028.29
2019-03-21T07:45:20.745Z,1028.30
2019-03-21T07:46:20.760Z,1028.27
2019-03-21T07:47:20.730Z,1028.27
2019-03-21T07:48:20.810Z,1028.28
2019-03-21T07:49:20.726Z,1028.23
2019-03-21T07:50:20.788Z,1028.31
2019-03-21T07:51:20.682Z,1028.30
2019-03-21T07:52:20.735Z,1028.33
2019-03-21T07:53:22.151Z,1028.33
2019-03-21T07:54:20.748Z,1028.33
2019-03-21T07:55:20.632Z,1028.31
2019-03-21T07:56:20.735Z,1028.34
2019-03-21T07:57:20.608Z,1028.32
2019-03-21T07:58:20.668Z,1028.35
2019-03-21T07:59:20.592Z,1028.27
2019-03-21T08:00:20.693Z,1028.36
2019-03-21T08:01:20.606Z,1028.32
2019-03-21T08:02:20.693Z,1028.41
2019-03-21T08:03:20.639Z,1028.38
2019-03-21T08:04:20.542Z,1028.38
2019-03-21T08:05:20.520Z,1028.36
2019-03-21T08:06:20.594Z,1028.40
2019-03-21T08:07:20.500Z,1028.39
2019-03-21T08:08:20.606Z,1028.41
2019-03-21T08:09:20.526Z,1028.41
2019-03-21T08:10:20.530Z,1028.37
2019-03-21T08:11:20.452Z,1028.37
2019-03-21T08:12:20.537Z,1028.38
2019-03-21T08:13:20.434Z,1028.37
2019-03-21T08:14:20.585Z,1028.35
2019-03-21T08:15:20.437Z,1028.37
2019-03-21T08:16:20.467Z,1028.35
2019-03-21T08:17:20.389Z,1028.32
2019-03-21T08:18:20.515Z,1028.39
2019-03-21T08:19:20.406Z,1028.34
2019-03-21T08:20:20.380Z,1028.38
2019-03-21T08:21:20.353Z,1028.35
2019-03-21T08:22:20.399Z,1028.39
2019-03-21T08:23:20.325Z,1028.33
2019-03-21T08:24:20.410Z,1028.35
2019-03-21T08:25:20.462Z,1028.33
2019-03-21T08:26:20.322Z,1028.33
2019-03-21T08:27:20.350Z,1028.32
2019-03-21T08:28:20.337Z,1028.28
2019-03-21T08:29:20.269Z,1028.35
2019-03-21T08:30:20.382Z,1028.32
2019-03-21T08:31:20.243Z,1028.34
2019-03-21T08:32:20.267Z,1028.31
2019-03-21T08:33:20.220Z,1028.33
2019-03-21T08:34:20.268Z,1028.34
2019-03-21T08:35:20.218Z,1028.36
2019-03-21T08:36:20.287Z,1028.39
2019-03-21T08:37:20.177Z,1028.34
2019-03-21T08:38:20.206Z,1028.37
2019-03-21T08:39:20.160Z,1028.36
2019-03-21T08:40:20.251Z,1028.33
2019-03-21T08:41:20.123Z,1028.36
2019-03-21T08:42:20.241Z,1028.37
2019-03-21T08:43:20.153Z,1028.34
2019-03-21T08:44:20.179Z,1028.28
2019-03-21T08:45:20.145Z,1028.38
2019-03-21T08:46:20.148Z,1028.36
2019-03-21T08:47:20.064Z,1028.41
2019-03-21T08:48:20.167Z,1028.34
2019-03-21T08:49:20.038Z,1028.40
2019-03-21T08:50:20.114Z,1028.30
2019-03-21T08:51:20.010Z,1028.43
2019-03-21T08:52:20.096Z,1028.36
2019-03-21T08:53:19.992Z,1028.41
2019-03-21T08:54:20.013Z,1028.31
2019-03-21T08:55:20.003Z,1028.28
2019-03-21T08:56:20.160Z,1028.35
2019-03-21T08:57:19.956Z,1028.31
2019-03-21T08:58:20.031Z,1028.32
2019-03-21T08:59:19.927Z,1028.31
2019-03-21T09:00:19.981Z,1028.32
2019-03-21T09:01:19.907Z,1028.27
2019-03-21T09:02:19.972Z,1028.28
2019-03-21T09:03:19.892Z,1028.28
2019-03-21T09:04:19.971Z,1028.31
2019-03-21T09:05:19.921Z,1028.28
2019-03-21T09:06:19.940Z,1028.32
2019-03-21T09:07:19.845Z,1028.33
2019-03-21T09:08:19.892Z,1028.32
2019-03-21T09:09:19.819Z,1028.33
2019-03-21T09:10:19.932Z,1028.29
2019-03-21T09:11:19.834Z,1028.24
2019-03-21T09:12:19.820Z,1028.22
2019-03-21T09:13:19.770Z,1028.24
2019-03-21T09:14:19.846Z,1028.26
2019-03-21T09:15:19.769Z,1028.29
2019-03-21T09:16:19.783Z,1028.32
2019-03-21T09:17:19.721Z,1028.30
2019-03-21T09:18:19.757Z,1028.28
2019-03-21T09:19:19.707Z,1028.25
2019-03-21T09:20:19.797Z,1028.29
2019-03-21T09:21:20.196Z,1028.28
2019-03-21T09:22:19.787Z,1028.30
2019-03-21T09:23:19.665Z,1028.27
2019-03-21T09:24:19.701Z,1028.26
2019-03-21T09:25:19.632Z,1028.37
2019-03-21T09:26:19.744Z,1028.32
2019-03-21T09:27:19.623Z,1028.28
2019-03-21T09:28:19.727Z,1028.23
2019-03-21T09:29:19.593Z,1028.33
2019-03-21T09:30:19.659Z,1028.28
2019-03-21T09:31:19.569Z,1028.28
2019-03-21T09:32:19.769Z,1028.27
2019-03-21T09:33:19.550Z,1028.30
2019-03-21T09:34:19.576Z,1028.35
2019-03-21T09:35:19.545Z,1028.33
2019-03-21T09:36:19.611Z,1028.31
2019-03-21T09:37:19.521Z,1028.33
2019-03-21T09:38:19.624Z,1028.33
2019-03-21T09:39:19.489Z,1028.37
2019-03-21T09:40:19.504Z,1028.33
2019-03-21T09:41:19.510Z,1028.32
2019-03-21T09:42:19.532Z,1028.35
2019-03-21T09:43:19.450Z,1028.33
2019-03-21T09:44:19.562Z,1028.35
2019-03-21T09:45:19.428Z,1028.30
2019-03-21T09:46:19.462Z,1028.28
2019-03-21T09:47:19.459Z,1028.27
2019-03-21T09:48:19.457Z,1028.34
2019-03-21T09:49:19.381Z,1028.35
2019-03-21T09:50:19.481Z,1028.34
2019-03-21T09:51:30.299Z,1028.30
2019-03-21T09:52:20.381Z,1028.31
2019-03-21T09:53:19.391Z,1028.28
2019-03-21T09:54:19.329Z,1028.37
2019-03-21T09:55:19.422Z,1028.35
2019-03-21T09:56:19.298Z,1028.31
2019-03-21T09:57:19.340Z,1028.36
2019-03-21T09:58:19.266Z,1028.26
2019-03-21T09:59:19.330Z,1028.31
2019-03-21T10:00:19.249Z,1028.31
2019-03-21T10:01:19.343Z,1028.28
2019-03-21T10:02:19.279Z,1028.26
2019-03-21T10:03:19.261Z,1028.25
2019-03-21T10:04:19.210Z,1028.30
2019-03-21T10:05:19.283Z,1028.26
2019-03-21T10:06:19.181Z,1028.31
2019-03-21T10:07:19.319Z,1028.25
2019-03-21T10:08:19.184Z,1028.30
2019-03-21T10:09:19.195Z,1028.32
2019-03-21T10:10:19.139Z,1028.31
2019-03-21T10:11:19.221Z,1028.31
2019-03-21T10:12:19.162Z,1028.29
2019-03-21T10:13:19.231Z,1028.27
2019-03-21T10:14:19.130Z,1028.25
2019-03-21T10:15:19.133Z,1028.25
2019-03-21T10:16:19.144Z,1028.23
2019-03-21T10:17:19.191Z,1028.26
2019-03-21T10:18:19.082Z,1028.29
2019-03-21T10:19:19.220Z,1028.28
2019-03-21T10:20:19.033Z,1028.27
2019-03-21T10:21:19.084Z,1028.28
2019-03-21T10:22:19.050Z,1028.29
2019-03-21T10:23:19.117Z,1028.25
2019-03-21T10:24:18.997Z,1028.22
2019-03-21T10:25:19.020Z,1028.29
2019-03-21T10:26:19.012Z,1028.28
2019-03-21T10:27:19.015Z,1028.30
2019-03-21T10:28:18.974Z,1028.23
2019-03-21T10:29:19.057Z,1028.30
2019-03-21T10:30:18.921Z,1028.30
2019-03-21T10:31:18.934Z,1028.26
2019-03-21T10:32:18.896Z,1028.25
2019-03-21T10:33:18.963Z,1028.26
2019-03-21T10:34:18.959Z,1028.28
2019-03-21T10:35:18.965Z,1028.24
2019-03-21T10:36:18.855Z,1028.29
2019-03-21T10:37:18.881Z,1028.29
2019-03-21T10:38:18.823Z,1028.34
2019-03-21T10:39:20.047Z,1028.31
2019-03-21T10:40:18.811Z,1028.29
2019-03-21T10:41:18.912Z,1028.27
2019-03-21T10:42:18.791Z,1028.29
2019-03-21T10:43:18.820Z,1028.25
2019-03-21T10:44:18.761Z,1028.32
2019-03-21T10:45:18.880Z,1028.28
2019-03-21T10:46:18.742Z,1028.28
2019-03-21T10:47:18.868Z,1028.20
2019-03-21T10:48:18.720Z,1028.22
2019-03-21T10:49:18.795Z,1028.29
2019-03-21T10:50:18.723Z,1028.26
2019-03-21T10:52:19.794Z,1028.22
2019-03-21T10:53:18.795Z,1028.27
2019-03-21T10:54:18.650Z,1028.24
2019-03-21T10:55:18.727Z,1028.27
2019-03-21T10:56:18.627Z,1028.24
2019-03-21T10:58:19.729Z,1028.21
2019-03-21T10:59:18.639Z,1028.28
2019-03-21T11:00:18.622Z,1028.17
2019-03-21T11:01:18.652Z,1028.27
2019-03-21T11:02:18.558Z,1028.22
2019-03-21T11:03:18.667Z,1028.26
2019-03-21T11:04:18.547Z,1028.23
2019-03-21T11:05:18.611Z,1028.16
2019-03-21T11:06:18.519Z,1028.18
2019-03-21T11:07:18.574Z,1028.20
2019-03-21T11:08:18.503Z,1028.11
2019-03-21T11:09:18.606Z,1028.07
2019-03-21T11:10:18.500Z,1028.06
2019-03-21T11:11:18.499Z,1028.07
2019-03-21T11:12:18.453Z,1028.08
2019-03-21T11:13:18.518Z,1028.07
2019-03-21T11:14:18.438Z,1028.07
2019-03-21T11:15:18.575Z,1028.06
2019-03-21T11:16:18.433Z,1028.07
2019-03-21T11:17:18.462Z,1028.09
2019-03-21T11:18:18.416Z,1028.06
2019-03-21T11:19:18.487Z,1028.07
2019-03-21T11:20:18.406Z,1028.04
2019-03-21T11:21:18.502Z,1028.06
2019-03-21T11:22:18.363Z,1028.11
2019-03-21T11:23:18.364Z,1028.01
2019-03-21T11:24:18.322Z,1028.04
2019-03-21T11:25:18.389Z,1028.00
2019-03-21T11:26:18.323Z,1028.03
2019-03-21T11:27:18.423Z,1028.00
2019-03-21T11:28:18.285Z,1027.99
2019-03-21T11:29:18.328Z,1027.98
2019-03-21T11:30:18.269Z,1028.03
2019-03-21T11:31:18.381Z,1028.02
2019-03-21T11:32:18.246Z,1028.00
2019-03-21T11:33:18.254Z,1028.02
2019-03-21T11:34:18.208Z,1027.97
2019-03-21T11:35:18.265Z,1028.01
2019-03-21T11:36:18.266Z,1027.96
2019-03-21T11:37:18.320Z,1028.00
2019-03-21T11:38:18.162Z,1027.93
2019-03-21T11:39:18.285Z,1027.89
2019-03-21T11:40:18.149Z,1027.86
2019-03-21T11:41:18.199Z,1027.87
2019-03-21T11:42:18.160Z,1027.91
2019-03-21T11:43:18.218Z,1027.89
2019-03-21T11:44:18.137Z,1027.90
2019-03-21T11:45:18.134Z,1027.82
2019-03-21T11:46:18.154Z,1027.92
2019-03-21T11:47:18.133Z,1027.91
2019-03-21T11:48:18.106Z,1027.81
2019-03-21T11:49:18.174Z,1027.70
2019-03-21T11:50:18.063Z,1027.78
2019-03-21T11:51:18.094Z,1027.77
2019-03-21T11:52:18.686Z,1027.72
2019-03-21T11:53:18.085Z,1027.71
2019-03-21T11:54:18.038Z,1027.76
2019-03-21T11:55:18.090Z,1027.74
2019-03-21T11:56:17.983Z,1027.76
2019-03-21T11:57:18.098Z,1027.76
2019-03-21T11:58:18.006Z,1027.73
2019-03-21T11:59:18.047Z,1027.75
2019-03-21T12:00:17.928Z,1027.72
2019-03-21T12:01:18.038Z,1027.70
2019-03-21T12:02:26.766Z,1027.79
2019-03-21T12:03:18.896Z,1027.74
2019-03-21T12:04:17.995Z,1027.77
2019-03-21T12:05:17.880Z,1027.69
2019-03-21T12:06:17.957Z,1027.77
2019-03-21T12:07:17.869Z,1027.71
2019-03-21T12:08:17.911Z,1027.67
2019-03-21T12:09:17.815Z,1027.69
2019-03-21T12:10:17.883Z,1027.71
2019-03-21T12:11:17.796Z,1027.70
2019-03-21T12:12:17.910Z,1027.70
2019-03-21T12:13:17.838Z,1027.63
2019-03-21T12:14:17.818Z,1027.64
2019-03-21T12:15:17.775Z,1027.67
2019-03-21T12:16:17.827Z,1027.67
2019-03-21T12:17:17.728Z,1027.63
2019-03-21T12:18:17.878Z,1027.63
2019-03-21T12:19:17.742Z,1027.62
2019-03-21T12:20:17.772Z,1027.64
2019-03-21T12:21:17.686Z,1027.61
2019-03-21T12:22:29.217Z,1027.60
2019-03-21T12:23:18.692Z,1027.58
2019-03-21T12:24:17.781Z,1027.54
2019-03-21T12:25:17.644Z,1027.55